createdAt,value
2023-09-19T00:00:43.187Z,53.94
2023-09-19T00:03:10.386Z,54.03
2023-09-19T00:05:39.744Z,53.68
2023-09-19T00:08:06.856Z,53.77
2023-09-19T00:10:36.291Z,54.46
2023-09-19T00:13:08.624Z,53.74
2023-09-19T00:15:43.852Z,53.74
2023-09-19T00:18:10.741Z,54.04
2023-09-19T00:20:39.399Z,54.57
2023-09-19T00:23:07.141Z,54.00
2023-09-19T00:25:34.025Z,54.24
2023-09-19T00:28:00.913Z,54.35
2023-09-19T00:30:28.133Z,54.77
2023-09-19T00:32:55.986Z,54.16
2023-09-19T00:35:26.754Z,54.78
2023-09-19T00:37:54.115Z,54.54
2023-09-19T00:40:22.667Z,54.52
2023-09-19T00:42:51.639Z,54.88
2023-09-19T00:45:19.593Z,55.05
2023-09-19T00:47:52.749Z,55.21
2023-09-19T00:50:22.409Z,54.72
2023-09-19T00:52:58.603Z,55.29
2023-09-19T00:55:26.647Z,55.08
2023-09-19T00:57:54.095Z,54.71
2023-09-19T01:00:21.704Z,54.95
2023-09-19T01:02:49.590Z,54.93
2023-09-19T01:05:17.240Z,55.31
2023-09-19T01:07:45.847Z,55.24
2023-09-19T01:10:15.903Z,55.45
2023-09-19T01:13:25.649Z,54.94
2023-09-19T01:16:05.534Z,54.80
2023-09-19T01:18:50.722Z,55.25
2023-09-19T01:21:57.010Z,54.90
2023-09-19T01:24:42.445Z,54.75
2023-09-19T01:27:21.349Z,55.22
2023-09-19T01:29:50.812Z,54.92
2023-09-19T01:32:23.933Z,55.42
2023-09-19T01:34:54.192Z,55.11
2023-09-19T01:37:26.654Z,55.24
2023-09-19T01:39:58.156Z,55.16
2023-09-19T01:42:43.382Z,55.31
2023-09-19T01:45:24.895Z,55.33
2023-09-19T01:47:57.138Z,55.42
2023-09-19T01:50:43.435Z,55.44
2023-09-19T01:53:22.113Z,55.47
2023-09-19T01:55:51.016Z,56.14
2023-09-19T01:58:26.617Z,55.56
2023-09-19T02:00:56.397Z,55.45
2023-09-19T02:03:24.204Z,55.90
2023-09-19T02:05:55.352Z,55.91
2023-09-19T02:08:26.520Z,55.10
2023-09-19T02:10:54.129Z,55.75
2023-09-19T02:13:23.700Z,55.27
2023-09-19T02:15:50.585Z,55.10
2023-09-19T02:18:18.224Z,55.65
2023-09-19T02:20:45.256Z,55.71
2023-09-19T02:23:12.337Z,55.66
2023-09-19T02:25:40.423Z,55.59
2023-09-19T02:28:07.964Z,55.74
2023-09-19T02:30:34.698Z,56.14
2023-09-19T02:33:03.148Z,55.55
2023-09-19T02:35:34.156Z,55.68
2023-09-19T02:38:00.844Z,56.13
2023-09-19T02:40:27.818Z,56.04
2023-09-19T02:42:55.825Z,56.17
2023-09-19T02:45:23.864Z,56.08
2023-09-19T02:47:50.923Z,56.14
2023-09-19T02:50:18.868Z,55.76
2023-09-19T02:52:49.951Z,56.31
2023-09-19T02:55:19.230Z,56.03
2023-09-19T02:57:58.404Z,56.08
2023-09-19T03:00:25.632Z,56.00
2023-09-19T03:02:57.493Z,56.03
2023-09-19T03:05:24.998Z,56.07
2023-09-19T03:07:52.116Z,56.16
2023-09-19T03:10:20.072Z,56.44
2023-09-19T03:12:47.902Z,56.11
2023-09-19T03:15:16.568Z,56.34
2023-09-19T03:17:47.419Z,56.91
2023-09-19T03:20:15.084Z,56.35
2023-09-19T03:22:42.105Z,56.35
2023-09-19T03:25:09.305Z,56.87
2023-09-19T03:27:39.824Z,57.18
2023-09-19T03:30:09.822Z,56.93
2023-09-19T03:32:37.483Z,56.68
2023-09-19T03:35:07.933Z,56.80
2023-09-19T03:37:35.158Z,56.59
2023-09-19T03:40:06.204Z,56.64
2023-09-19T03:42:33.201Z,56.76
2023-09-19T03:45:02.081Z,56.66
2023-09-19T03:47:28.842Z,56.87
2023-09-19T03:49:55.604Z,56.79
2023-09-19T03:52:22.303Z,57.10
2023-09-19T03:54:49.046Z,56.97
2023-09-19T03:57:18.313Z,57.38
2023-09-19T03:59:45.168Z,57.33
2023-09-19T04:02:23.079Z,58.28
2023-09-19T04:04:50.616Z,57.78
2023-09-19T04:07:18.107Z,57.77
2023-09-19T04:09:44.940Z,57.65
2023-09-19T04:12:11.727Z,57.92
2023-09-19T04:14:39.682Z,57.93
2023-09-19T04:17:08.697Z,57.83
2023-09-19T04:19:37.056Z,58.28
2023-09-19T04:22:05.196Z,57.88
2023-09-19T04:24:33.495Z,58.02
2023-09-19T04:27:03.430Z,58.14
2023-09-19T04:29:30.515Z,58.01
2023-09-19T04:32:00.410Z,58.05
2023-09-19T04:34:27.087Z,57.93
2023-09-19T04:36:54.196Z,57.93
2023-09-19T04:39:22.254Z,57.95
2023-09-19T04:41:49.251Z,58.22
2023-09-19T04:44:17.044Z,58.37
2023-09-19T04:46:44.037Z,58.22
2023-09-19T04:49:10.886Z,57.96
2023-09-19T04:51:37.854Z,58.58
2023-09-19T04:54:05.235Z,58.08
2023-09-19T04:56:33.288Z,58.85
2023-09-19T04:59:01.239Z,58.15
2023-09-19T05:01:28.377Z,58.43
2023-09-19T05:03:55.292Z,58.78
2023-09-19T05:06:22.748Z,58.67
2023-09-19T05:08:53.844Z,58.93
2023-09-19T05:11:23.197Z,59.10
2023-09-19T05:13:54.321Z,58.91
2023-09-19T05:16:21.396Z,59.09
2023-09-19T05:18:48.233Z,59.59
2023-09-19T05:21:14.966Z,58.85
2023-09-19T05:23:42.566Z,58.93
2023-09-19T05:26:09.771Z,58.70
2023-09-19T05:28:37.085Z,58.50
2023-09-19T05:31:04.035Z,58.20
2023-09-19T05:33:33.223Z,58.32
2023-09-19T05:36:00.325Z,58.98
2023-09-19T05:38:27.809Z,59.02
2023-09-19T05:40:55.342Z,58.84
2023-09-19T05:43:22.307Z,58.94
2023-09-19T05:45:49.400Z,59.60
2023-09-19T05:48:17.097Z,59.04
2023-09-19T05:50:46.050Z,59.30
2023-09-19T05:53:15.830Z,58.89
2023-09-19T05:55:43.164Z,59.06
2023-09-19T05:58:11.362Z,58.62
2023-09-19T06:00:39.682Z,58.02
2023-09-19T06:03:06.940Z,58.10
2023-09-19T06:05:34.063Z,58.04
2023-09-19T06:08:02.216Z,57.73
2023-09-19T06:10:29.537Z,56.98
2023-09-19T06:12:56.613Z,56.83
2023-09-19T06:15:25.835Z,56.73
2023-09-19T06:17:56.858Z,56.13
2023-09-19T06:20:25.178Z,55.80
2023-09-19T06:22:52.838Z,54.84
2023-09-19T06:25:21.170Z,54.48
2023-09-19T06:27:49.425Z,53.88
2023-09-19T06:30:16.741Z,53.56
2023-09-19T06:32:46.302Z,52.94
2023-09-19T06:35:17.328Z,52.37
2023-09-19T06:37:44.925Z,51.34
2023-09-19T06:40:15.348Z,50.64
2023-09-19T06:42:46.743Z,50.39
2023-09-19T06:45:18.863Z,49.75
2023-09-19T06:47:47.307Z,49.15
2023-09-19T06:50:15.691Z,48.51
2023-09-19T06:52:42.913Z,48.45
2023-09-19T06:55:17.380Z,47.54
2023-09-19T06:57:47.347Z,46.19
2023-09-19T07:00:23.362Z,44.10
2023-09-19T07:03:12.803Z,42.85
2023-09-19T07:05:41.616Z,41.05
2023-09-19T07:08:11.234Z,39.69
2023-09-19T07:10:38.048Z,39.75
2023-09-19T07:13:11.477Z,37.99
2023-09-19T07:15:42.971Z,37.42
2023-09-19T07:18:12.642Z,36.68
2023-09-19T07:20:39.712Z,36.80
2023-09-19T07:23:08.603Z,35.73
2023-09-19T07:25:37.210Z,34.19
2023-09-19T07:28:04.314Z,34.51
2023-09-19T07:30:31.622Z,33.90
2023-09-19T07:32:58.819Z,33.54
2023-09-19T07:35:26.458Z,32.90
2023-09-19T07:37:53.456Z,32.06
2023-09-19T07:40:21.939Z,31.68
2023-09-19T07:42:49.260Z,31.60
2023-09-19T07:45:18.250Z,30.79
2023-09-19T07:47:46.890Z,30.86
2023-09-19T07:50:15.126Z,30.36
2023-09-19T07:52:42.021Z,30.60
2023-09-19T07:55:10.185Z,30.25
2023-09-19T07:57:37.342Z,30.46
2023-09-19T08:00:08.486Z,30.09
2023-09-19T08:05:07.533Z,29.04
2023-09-19T08:07:34.533Z,28.99
2023-09-19T08:10:01.251Z,28.89
2023-09-19T08:12:28.058Z,29.80
2023-09-19T08:14:56.312Z,29.79
2023-09-19T08:17:26.565Z,29.53
2023-09-19T08:19:54.185Z,29.55
2023-09-19T08:22:22.532Z,28.95
2023-09-19T08:24:49.280Z,28.76
2023-09-19T08:27:16.613Z,29.09
2023-09-19T08:29:43.639Z,29.47
2023-09-19T08:32:10.655Z,29.98
2023-09-19T08:34:39.984Z,30.51
2023-09-19T08:37:06.888Z,30.62
2023-09-19T08:39:34.654Z,31.44
2023-09-19T08:42:02.417Z,31.98
2023-09-19T08:44:32.920Z,32.41
2023-09-19T08:47:08.861Z,33.25
2023-09-19T08:50:15.497Z,33.04
2023-09-19T08:52:49.348Z,32.64
2023-09-19T08:55:23.239Z,32.65
2023-09-19T08:58:00.048Z,33.10
2023-09-19T09:00:29.463Z,32.02
2023-09-19T09:02:57.696Z,31.98
2023-09-19T09:05:25.541Z,32.00
2023-09-19T09:07:53.388Z,32.59
2023-09-19T09:10:23.650Z,33.02
2023-09-19T09:12:56.331Z,34.61
2023-09-19T09:15:24.701Z,35.46
2023-09-19T09:17:56.128Z,36.00
2023-09-19T09:20:22.970Z,36.87
2023-09-19T09:22:56.941Z,37.63
2023-09-19T09:25:27.003Z,37.86
2023-09-19T09:28:02.508Z,37.42
2023-09-19T09:30:37.969Z,37.35
2023-09-19T09:33:16.855Z,36.78
2023-09-19T09:35:53.566Z,36.71
2023-09-19T09:38:33.211Z,36.18
2023-09-19T09:41:01.704Z,36.17
2023-09-19T09:43:38.953Z,35.86
2023-09-19T09:46:24.830Z,35.38
2023-09-19T09:49:17.228Z,35.41
2023-09-19T09:52:00.962Z,35.16
2023-09-19T09:54:35.365Z,33.79
2023-09-19T09:57:14.688Z,33.95
2023-09-19T09:59:48.787Z,33.97
2023-09-19T10:02:21.840Z,34.20
2023-09-19T10:05:11.367Z,33.71
2023-09-19T10:07:44.648Z,33.25
2023-09-19T10:10:17.874Z,33.60
2023-09-19T10:12:47.179Z,33.89
2023-09-19T10:15:17.346Z,34.03
2023-09-19T10:17:47.110Z,34.19
2023-09-19T10:20:36.176Z,35.15
2023-09-19T10:23:13.770Z,35.71
2023-09-19T10:25:46.904Z,35.96
2023-09-19T10:28:15.677Z,36.45
2023-09-19T10:30:48.277Z,36.40
2023-09-19T10:33:16.554Z,37.04
2023-09-19T10:35:46.234Z,37.41
2023-09-19T10:38:18.243Z,37.82
2023-09-19T10:40:51.449Z,37.36
2023-09-19T10:43:19.781Z,37.39
2023-09-19T10:45:50.983Z,37.18
2023-09-19T10:48:21.581Z,37.01
2023-09-19T10:51:25.431Z,36.38
2023-09-19T10:53:56.690Z,36.08
2023-09-19T10:56:39.001Z,35.22
2023-09-19T10:59:06.638Z,35.40
2023-09-19T11:01:49.079Z,34.78
2023-09-19T11:04:28.776Z,34.08
2023-09-19T11:07:12.541Z,33.82
2023-09-19T11:09:58.857Z,34.28
2023-09-19T11:12:37.167Z,34.00
2023-09-19T11:15:09.233Z,34.37
2023-09-19T11:17:53.426Z,34.55
2023-09-19T11:20:25.745Z,34.90
2023-09-19T11:22:58.668Z,35.45
2023-09-19T11:25:32.191Z,35.74
2023-09-19T11:28:10.012Z,36.02
2023-09-19T11:30:38.966Z,36.28
2023-09-19T11:33:24.643Z,36.33
2023-09-19T11:36:31.511Z,36.66
2023-09-19T11:39:09.405Z,36.31
2023-09-19T11:41:40.749Z,36.14
2023-09-19T11:44:08.036Z,36.02
2023-09-19T11:46:53.960Z,36.11
2023-09-19T11:49:35.687Z,36.68
2023-09-19T11:52:06.407Z,36.78
2023-09-19T11:54:33.719Z,36.87
2023-09-19T11:57:01.647Z,36.66
2023-09-19T11:59:30.476Z,36.67
2023-09-19T12:01:59.369Z,37.25
2023-09-19T12:04:44.795Z,37.48
2023-09-19T12:07:18.206Z,37.23
2023-09-19T12:09:50.779Z,37.64
2023-09-19T12:12:21.835Z,37.86
2023-09-19T12:14:51.923Z,37.37
2023-09-19T12:17:25.724Z,37.79
2023-09-19T12:19:54.322Z,38.27
2023-09-19T12:22:24.404Z,38.10
2023-09-19T12:24:52.207Z,37.78
2023-09-19T12:27:19.143Z,38.25
2023-09-19T12:29:52.099Z,38.47
2023-09-19T12:32:21.084Z,38.11
2023-09-19T12:34:55.988Z,38.23
2023-09-19T12:37:24.066Z,37.54
2023-09-19T12:39:54.712Z,37.93
2023-09-19T12:42:25.565Z,37.41
2023-09-19T12:44:57.670Z,37.35
2023-09-19T12:47:25.970Z,37.77
2023-09-19T12:50:20.962Z,37.34
2023-09-19T12:52:50.637Z,37.26
2023-09-19T12:55:27.768Z,37.78
2023-09-19T12:58:13.859Z,37.15
2023-09-19T13:00:48.634Z,37.29
2023-09-19T13:03:29.808Z,37.62
2023-09-19T13:06:02.038Z,37.74
2023-09-19T13:08:32.224Z,37.16
2023-09-19T13:11:22.070Z,37.05
2023-09-19T13:13:55.090Z,37.65
2023-09-19T13:16:26.650Z,37.57
2023-09-19T13:18:58.783Z,37.30
2023-09-19T13:21:34.148Z,37.30
2023-09-19T13:24:24.393Z,37.16
2023-09-19T13:26:51.156Z,37.31
2023-09-19T13:29:20.158Z,37.18
2023-09-19T13:31:51.146Z,37.18
2023-09-19T13:34:18.727Z,37.02
2023-09-19T13:36:46.196Z,37.21
2023-09-19T13:39:17.150Z,37.42
2023-09-19T13:41:48.533Z,37.65
2023-09-19T13:44:15.780Z,37.56
2023-09-19T13:46:47.012Z,37.48
2023-09-19T13:49:14.315Z,36.94
2023-09-19T13:51:44.882Z,36.93
2023-09-19T13:54:13.311Z,36.59
2023-09-19T13:56:40.394Z,36.64
2023-09-19T13:59:07.960Z,36.34
2023-09-19T14:01:35.006Z,36.41
2023-09-19T14:04:01.928Z,36.81
2023-09-19T14:06:28.553Z,36.63
2023-09-19T14:08:55.221Z,36.86
2023-09-19T14:11:22.022Z,36.82
2023-09-19T14:13:50.223Z,36.70
2023-09-19T14:16:19.263Z,36.25
2023-09-19T14:18:47.723Z,36.56
2023-09-19T14:21:15.923Z,36.75
2023-09-19T14:23:44.631Z,36.32
2023-09-19T14:26:11.634Z,36.11
2023-09-19T14:28:40.159Z,36.35
2023-09-19T14:31:11.308Z,36.36
2023-09-19T14:33:39.612Z,36.32
2023-09-19T14:36:08.157Z,36.74
2023-09-19T14:38:35.586Z,36.54
2023-09-19T14:41:03.679Z,36.86
2023-09-19T14:43:31.327Z,36.80
2023-09-19T14:46:01.123Z,36.74
2023-09-19T14:48:27.909Z,36.79
2023-09-19T14:50:56.371Z,36.91
2023-09-19T14:53:23.308Z,36.61
2023-09-19T14:55:53.218Z,36.82
2023-09-19T14:58:19.925Z,37.12
2023-09-19T15:00:46.961Z,36.64
2023-09-19T15:03:14.979Z,37.11
2023-09-19T15:05:41.999Z,36.80
2023-09-19T15:08:08.741Z,36.97
2023-09-19T15:10:35.890Z,37.11
2023-09-19T15:13:02.712Z,37.16
2023-09-19T15:15:29.462Z,36.78
2023-09-19T15:17:56.299Z,36.50
2023-09-19T15:20:23.010Z,36.90
2023-09-19T15:22:51.763Z,36.74
2023-09-19T15:25:18.484Z,36.51
2023-09-19T15:27:46.369Z,36.54
2023-09-19T15:30:16.534Z,37.18
2023-09-19T15:32:43.601Z,36.83
2023-09-19T15:35:14.025Z,37.10
2023-09-19T15:37:41.955Z,36.67
2023-09-19T15:40:12.150Z,37.10
2023-09-19T15:42:38.862Z,36.54
2023-09-19T15:45:06.249Z,36.48
2023-09-19T15:47:32.973Z,36.42
2023-09-19T15:49:59.758Z,36.63
2023-09-19T15:52:27.446Z,36.13
2023-09-19T15:54:54.116Z,36.23
2023-09-19T15:57:20.971Z,36.37
2023-09-19T15:59:48.227Z,36.57
2023-09-19T16:02:14.982Z,36.27
2023-09-19T16:04:42.168Z,36.09
2023-09-19T16:07:08.977Z,36.02
2023-09-19T16:09:36.580Z,36.15
2023-09-19T16:12:04.218Z,36.13
2023-09-19T16:14:32.255Z,36.29
2023-09-19T16:17:01.475Z,35.86
2023-09-19T16:19:28.277Z,36.34
2023-09-19T16:21:55.031Z,35.93
2023-09-19T16:24:21.854Z,35.58
2023-09-19T16:26:50.354Z,36.31
2023-09-19T16:29:17.052Z,35.71
2023-09-19T16:31:43.771Z,36.25
2023-09-19T16:34:10.814Z,35.93
2023-09-19T16:36:37.862Z,35.83
2023-09-19T16:39:05.934Z,35.49
2023-09-19T16:41:32.587Z,36.12
2023-09-19T16:43:59.443Z,35.68
2023-09-19T16:46:26.341Z,36.15
2023-09-19T16:49:02.855Z,36.02
2023-09-19T16:51:31.381Z,36.61
2023-09-19T16:53:58.353Z,36.37
2023-09-19T16:56:25.197Z,36.28
2023-09-19T16:58:53.010Z,36.32
2023-09-19T17:01:21.740Z,36.23
2023-09-19T17:03:49.698Z,36.56
2023-09-19T17:06:19.067Z,36.51
2023-09-19T17:08:46.972Z,36.72
2023-09-19T17:11:17.339Z,36.33
2023-09-19T17:13:48.089Z,36.66
2023-09-19T17:16:22.592Z,36.87
2023-09-19T17:18:54.731Z,37.06
2023-09-19T17:21:22.221Z,36.73
2023-09-19T17:23:49.774Z,37.08
2023-09-19T17:26:21.925Z,37.19
2023-09-19T17:28:48.963Z,37.27
2023-09-19T17:31:23.169Z,37.11
2023-09-19T17:33:51.981Z,37.44
2023-09-19T17:36:21.907Z,37.73
2023-09-19T17:38:58.154Z,37.57
2023-09-19T17:41:25.622Z,37.84
2023-09-19T17:43:54.411Z,38.41
2023-09-19T17:46:21.763Z,38.22
2023-09-19T17:48:50.323Z,38.28
2023-09-19T17:51:18.072Z,38.30
2023-09-19T17:53:47.361Z,38.56
2023-09-19T17:56:16.680Z,38.53
2023-09-19T17:58:55.597Z,39.32
2023-09-19T18:01:30.451Z,38.93
2023-09-19T18:03:58.874Z,39.17
2023-09-19T18:06:27.634Z,39.53
2023-09-19T18:08:55.871Z,39.80
2023-09-19T18:11:26.495Z,39.50
2023-09-19T18:13:55.669Z,40.07
2023-09-19T18:16:25.940Z,39.83
2023-09-19T18:18:53.948Z,39.81
2023-09-19T18:21:21.367Z,40.19
2023-09-19T18:24:05.085Z,40.25
2023-09-19T18:26:32.192Z,40.46
2023-09-19T18:28:59.567Z,40.73
2023-09-19T18:31:26.998Z,40.50
2023-09-19T18:33:54.725Z,40.59
2023-09-19T18:36:21.854Z,41.01
2023-09-19T18:38:49.184Z,40.97
2023-09-19T18:41:16.525Z,41.07
2023-09-19T18:43:44.060Z,41.60
2023-09-19T18:46:12.736Z,41.61
2023-09-19T18:48:46.249Z,41.73
2023-09-19T18:51:16.046Z,41.24
2023-09-19T18:53:47.253Z,41.29
2023-09-19T18:56:20.679Z,41.45
2023-09-19T18:58:51.016Z,42.33
2023-09-19T19:01:18.436Z,42.62
2023-09-19T19:03:46.910Z,42.29
2023-09-19T19:06:18.943Z,42.59
2023-09-19T19:08:47.232Z,42.38
2023-09-19T19:11:17.989Z,42.55
2023-09-19T19:13:48.173Z,42.39
2023-09-19T19:16:20.128Z,42.65
2023-09-19T19:18:48.864Z,42.59
2023-09-19T19:21:17.273Z,42.99
2023-09-19T19:23:44.195Z,43.25
2023-09-19T19:26:12.407Z,43.69
2023-09-19T19:28:42.135Z,43.52
2023-09-19T19:31:10.710Z,43.60
2023-09-19T19:33:39.361Z,43.60
2023-09-19T19:36:08.420Z,43.56
2023-09-19T19:38:38.466Z,43.54
2023-09-19T19:41:06.218Z,43.44
2023-09-19T19:43:33.518Z,42.94
2023-09-19T19:46:02.062Z,43.58
2023-09-19T19:48:30.332Z,43.34
2023-09-19T19:50:57.598Z,43.16
2023-09-19T19:53:27.634Z,43.38
2023-09-19T19:55:59.944Z,43.45
2023-09-19T19:58:27.002Z,43.36
2023-09-19T20:00:57.561Z,43.56
2023-09-19T20:03:27.861Z,43.91
2023-09-19T20:05:54.914Z,43.74
2023-09-19T20:08:21.620Z,44.07
2023-09-19T20:10:48.478Z,43.84
2023-09-19T20:13:16.281Z,44.07
2023-09-19T20:15:43.176Z,44.05
2023-09-19T20:18:14.133Z,43.98
2023-09-19T20:20:41.230Z,44.27
2023-09-19T20:23:08.420Z,43.99
2023-09-19T20:25:36.191Z,44.05
2023-09-19T20:28:04.741Z,43.82
2023-09-19T20:30:32.779Z,43.81
2023-09-19T20:33:03.100Z,44.67
2023-09-19T20:35:30.296Z,44.50
2023-09-19T20:38:01.992Z,44.63
2023-09-19T20:40:28.961Z,44.56
2023-09-19T20:42:55.908Z,43.61
2023-09-19T20:45:22.859Z,43.73
2023-09-19T20:47:52.581Z,43.81
2023-09-19T20:50:25.648Z,44.08
2023-09-19T20:52:52.472Z,44.30
2023-09-19T20:55:19.211Z,44.47
2023-09-19T20:57:47.354Z,44.22
2023-09-19T21:00:14.754Z,43.71
2023-09-19T21:02:41.929Z,44.02
2023-09-19T21:05:09.219Z,44.11
2023-09-19T21:07:36.563Z,43.68
2023-09-19T21:10:05.574Z,43.50
2023-09-19T21:12:34.598Z,43.88
2023-09-19T21:15:02.258Z,44.30
2023-09-19T21:17:29.454Z,43.85
2023-09-19T21:19:56.956Z,43.99
2023-09-19T21:22:23.697Z,43.78
2023-09-19T21:24:53.984Z,43.83
2023-09-19T21:27:21.214Z,44.20
2023-09-19T21:29:48.294Z,43.73
2023-09-19T21:32:15.150Z,44.19
2023-09-19T21:34:42.013Z,44.18
2023-09-19T21:37:09.351Z,43.56
2023-09-19T21:39:36.127Z,44.13
2023-09-19T21:42:04.836Z,44.59
2023-09-19T21:44:31.554Z,44.52
2023-09-19T21:46:59.358Z,43.70
2023-09-19T21:49:27.537Z,43.80
2023-09-19T21:51:54.210Z,43.56
2023-09-19T21:54:21.165Z,43.79
2023-09-19T21:56:49.673Z,44.21
2023-09-19T21:59:16.455Z,44.23
2023-09-19T22:01:44.291Z,44.25
2023-09-19T22:04:11.280Z,44.38
2023-09-19T22:06:39.449Z,43.93
2023-09-19T22:09:06.169Z,43.90
2023-09-19T22:11:32.920Z,43.94
2023-09-19T22:13:59.865Z,44.74
2023-09-19T22:16:26.793Z,44.34
2023-09-19T22:18:54.169Z,44.50
2023-09-19T22:21:28.606Z,45.01
2023-09-19T22:23:55.293Z,44.88
2023-09-19T22:26:26.045Z,44.77
2023-09-19T22:28:54.360Z,44.72
2023-09-19T22:31:23.775Z,45.41
2023-09-19T22:33:52.207Z,44.86
2023-09-19T22:36:40.389Z,45.18
2023-09-19T22:39:26.900Z,45.46
2023-09-19T22:41:54.915Z,44.71
2023-09-19T22:44:27.250Z,44.91
2023-09-19T22:46:54.816Z,44.76
2023-09-19T22:49:21.822Z,44.70
2023-09-19T22:51:52.430Z,45.15
2023-09-19T22:54:26.844Z,44.73
2023-09-19T22:56:54.872Z,45.52
2023-09-19T22:59:22.365Z,45.31
2023-09-19T23:01:54.147Z,45.50
2023-09-19T23:04:22.621Z,45.34
2023-09-19T23:06:54.575Z,45.38
2023-09-19T23:09:23.119Z,45.50
2023-09-19T23:11:56.310Z,44.98
2023-09-19T23:14:42.952Z,45.53
2023-09-19T23:17:22.141Z,45.15
2023-09-19T23:19:56.680Z,45.02
2023-09-19T23:22:29.649Z,44.93
2023-09-19T23:25:10.715Z,45.15
2023-09-19T23:27:37.590Z,45.32
2023-09-19T23:30:17.315Z,45.62
2023-09-19T23:32:44.663Z,45.42
2023-09-19T23:35:14.614Z,46.10
2023-09-19T23:37:41.601Z,45.73
2023-09-19T23:40:11.118Z,45.54
2023-09-19T23:42:41.419Z,45.38
2023-09-19T23:45:10.367Z,45.62
2023-09-19T23:47:37.398Z,45.53
2023-09-19T23:50:04.643Z,44.99
2023-09-19T23:52:31.511Z,45.58
2023-09-19T23:55:00.986Z,45.50
2023-09-19T23:57:28.876Z,46.02
2023-09-19T23:59:55.567Z,46.17
